sensor_id;sensor_type;location;lat;lon;timestamp;temperature;humidity
26304;DHT22;70693;48.680;8.890;2023-12-07T00:00:51;10.30;98.90
26304;DHT22;70693;48.680;8.890;2023-12-07T00:03:16;10.30;98.70
26304;DHT22;70693;48.680;8.890;2023-12-07T00:05:42;10.40;98.70
26304;DHT22;70693;48.680;8.890;2023-12-07T00:08:10;10.40;98.60
26304;DHT22;70693;48.680;8.890;2023-12-07T00:10:36;10.50;98.50
26304;DHT22;70693;48.680;8.890;2023-12-07T00:13:02;10.40;98.40
26304;DHT22;70693;48.680;8.890;2023-12-07T00:15:28;10.50;98.30
26304;DHT22;70693;48.680;8.890;2023-12-07T00:17:53;10.50;98.30
26304;DHT22;70693;48.680;8.890;2023-12-07T00:20:19;10.50;98.20
26304;DHT22;70693;48.680;8.890;2023-12-07T00:22:44;10.50;98.20
26304;DHT22;70693;48.680;8.890;2023-12-07T00:25:10;10.60;98.20
26304;DHT22;70693;48.680;8.890;2023-12-07T00:27:36;10.50;98.10
26304;DHT22;70693;48.680;8.890;2023-12-07T00:30:02;10.60;98.10
26304;DHT22;70693;48.680;8.890;2023-12-07T00:32:28;10.60;98.10
26304;DHT22;70693;48.680;8.890;2023-12-07T00:34:54;10.60;98.10
26304;DHT22;70693;48.680;8.890;2023-12-07T00:37:20;10.50;98.10
26304;DHT22;70693;48.680;8.890;2023-12-07T00:39:45;10.50;98.10
26304;DHT22;70693;48.680;8.890;2023-12-07T00:42:11;10.50;98.10
26304;DHT22;70693;48.680;8.890;2023-12-07T00:44:40;10.50;98.10
26304;DHT22;70693;48.680;8.890;2023-12-07T00:47:06;10.50;98.00
26304;DHT22;70693;48.680;8.890;2023-12-07T00:49:31;10.50;98.10
26304;DHT22;70693;48.680;8.890;2023-12-07T00:51:57;10.50;98.00
26304;DHT22;70693;48.680;8.890;2023-12-07T00:54:23;10.50;98.10
26304;DHT22;70693;48.680;8.890;2023-12-07T00:56:48;10.50;98.10
26304;DHT22;70693;48.680;8.890;2023-12-07T00:59:14;10.50;98.10
26304;DHT22;70693;48.680;8.890;2023-12-07T01:01:39;10.40;98.10
26304;DHT22;70693;48.680;8.890;2023-12-07T01:04:05;10.50;98.10
26304;DHT22;70693;48.680;8.890;2023-12-07T01:06:31;10.40;98.20
26304;DHT22;70693;48.680;8.890;2023-12-07T01:08:57;10.40;98.20
26304;DHT22;70693;48.680;8.890;2023-12-07T01:11:22;10.40;98.20
26304;DHT22;70693;48.680;8.890;2023-12-07T01:13:48;10.40;98.20
26304;DHT22;70693;48.680;8.890;2023-12-07T01:16:14;10.40;98.20
26304;DHT22;70693;48.680;8.890;2023-12-07T01:18:40;10.40;98.20
26304;DHT22;70693;48.680;8.890;2023-12-07T01:21:05;10.40;98.20
26304;DHT22;70693;48.680;8.890;2023-12-07T01:23:31;10.30;98.20
26304;DHT22;70693;48.680;8.890;2023-12-07T01:25:57;10.30;98.20
26304;DHT22;70693;48.680;8.890;2023-12-07T01:28:23;10.30;98.20
26304;DHT22;70693;48.680;8.890;2023-12-07T01:30:48;10.30;98.20
26304;DHT22;70693;48.680;8.890;2023-12-07T01:33:14;10.30;98.20
26304;DHT22;70693;48.680;8.890;2023-12-07T01:35:40;10.30;98.30
26304;DHT22;70693;48.680;8.890;2023-12-07T01:38:06;10.30;98.30
26304;DHT22;70693;48.680;8.890;2023-12-07T01:40:32;10.30;98.30
26304;DHT22;70693;48.680;8.890;2023-12-07T01:42:57;10.20;98.30
26304;DHT22;70693;48.680;8.890;2023-12-07T01:45:23;10.30;98.30
26304;DHT22;70693;48.680;8.890;2023-12-07T01:47:50;10.20;98.30
26304;DHT22;70693;48.680;8.890;2023-12-07T01:50:17;10.20;98.30
26304;DHT22;70693;48.680;8.890;2023-12-07T01:52:55;10.20;98.30
26304;DHT22;70693;48.680;8.890;2023-12-07T01:55:24;10.20;98.70
26304;DHT22;70693;48.680;8.890;2023-12-07T01:57:50;10.20;98.30
26304;DHT22;70693;48.680;8.890;2023-12-07T02:00:16;10.20;98.40
26304;DHT22;70693;48.680;8.890;2023-12-07T02:02:44;10.20;98.40
26304;DHT22;70693;48.680;8.890;2023-12-07T02:05:10;10.20;98.40
26304;DHT22;70693;48.680;8.890;2023-12-07T02:07:36;10.10;98.40
26304;DHT22;70693;48.680;8.890;2023-12-07T02:10:03;10.10;98.40
26304;DHT22;70693;48.680;8.890;2023-12-07T02:12:28;10.10;98.40
26304;DHT22;70693;48.680;8.890;2023-12-07T02:14:55;10.10;98.40
26304;DHT22;70693;48.680;8.890;2023-12-07T02:17:33;10.10;98.40
26304;DHT22;70693;48.680;8.890;2023-12-07T02:22:56;10.10;98.40
26304;DHT22;70693;48.680;8.890;2023-12-07T02:25:31;10.10;98.40
26304;DHT22;70693;48.680;8.890;2023-12-07T02:27:58;10.10;98.40
26304;DHT22;70693;48.680;8.890;2023-12-07T02:30:23;10.10;98.40
26304;DHT22;70693;48.680;8.890;2023-12-07T02:32:49;10.10;98.40
26304;DHT22;70693;48.680;8.890;2023-12-07T02:35:14;10.10;98.50
26304;DHT22;70693;48.680;8.890;2023-12-07T02:37:45;10.10;98.50
26304;DHT22;70693;48.680;8.890;2023-12-07T02:40:14;10.10;98.50
26304;DHT22;70693;48.680;8.890;2023-12-07T02:42:41;10.00;98.50
26304;DHT22;70693;48.680;8.890;2023-12-07T02:45:09;10.00;98.50
26304;DHT22;70693;48.680;8.890;2023-12-07T02:47:35;10.00;98.50
26304;DHT22;70693;48.680;8.890;2023-12-07T02:50:02;10.00;98.50
26304;DHT22;70693;48.680;8.890;2023-12-07T02:52:27;10.00;98.50
26304;DHT22;70693;48.680;8.890;2023-12-07T02:54:54;10.00;98.50
26304;DHT22;70693;48.680;8.890;2023-12-07T02:57:19;10.00;98.50
26304;DHT22;70693;48.680;8.890;2023-12-07T02:59:45;10.00;98.50
26304;DHT22;70693;48.680;8.890;2023-12-07T03:02:11;10.00;98.50
26304;DHT22;70693;48.680;8.890;2023-12-07T03:04:36;10.00;98.50
26304;DHT22;70693;48.680;8.890;2023-12-07T03:07:02;10.00;98.50
26304;DHT22;70693;48.680;8.890;2023-12-07T03:09:27;10.00;98.50
26304;DHT22;70693;48.680;8.890;2023-12-07T03:11:53;10.00;98.50
26304;DHT22;70693;48.680;8.890;2023-12-07T03:14:19;10.00;98.50
26304;DHT22;70693;48.680;8.890;2023-12-07T03:16:45;10.00;98.50
26304;DHT22;70693;48.680;8.890;2023-12-07T03:19:11;10.00;98.50
26304;DHT22;70693;48.680;8.890;2023-12-07T03:21:40;10.00;98.50
26304;DHT22;70693;48.680;8.890;2023-12-07T03:24:07;10.00;98.50
26304;DHT22;70693;48.680;8.890;2023-12-07T03:26:37;10.00;98.50
26304;DHT22;70693;48.680;8.890;2023-12-07T03:29:02;9.90;98.50
26304;DHT22;70693;48.680;8.890;2023-12-07T03:31:28;9.90;98.50
26304;DHT22;70693;48.680;8.890;2023-12-07T03:33:54;9.90;98.50
26304;DHT22;70693;48.680;8.890;2023-12-07T03:36:20;9.90;98.50
26304;DHT22;70693;48.680;8.890;2023-12-07T03:38:46;9.90;98.50
26304;DHT22;70693;48.680;8.890;2023-12-07T03:41:11;9.90;98.50
26304;DHT22;70693;48.680;8.890;2023-12-07T03:43:37;9.90;98.50
26304;DHT22;70693;48.680;8.890;2023-12-07T03:46:07;9.90;98.50
26304;DHT22;70693;48.680;8.890;2023-12-07T03:48:33;9.90;98.50
26304;DHT22;70693;48.680;8.890;2023-12-07T03:50:59;9.90;98.50
26304;DHT22;70693;48.680;8.890;2023-12-07T03:53:25;9.90;98.50
26304;DHT22;70693;48.680;8.890;2023-12-07T03:55:51;9.90;98.50
26304;DHT22;70693;48.680;8.890;2023-12-07T03:58:17;9.90;98.50
26304;DHT22;70693;48.680;8.890;2023-12-07T04:00:43;9.90;98.50
26304;DHT22;70693;48.680;8.890;2023-12-07T04:03:09;9.90;98.50
26304;DHT22;70693;48.680;8.890;2023-12-07T04:05:35;9.90;98.50
26304;DHT22;70693;48.680;8.890;2023-12-07T04:08:00;9.90;98.50
26304;DHT22;70693;48.680;8.890;2023-12-07T04:10:26;9.80;98.50
26304;DHT22;70693;48.680;8.890;2023-12-07T04:12:52;9.80;98.40
26304;DHT22;70693;48.680;8.890;2023-12-07T04:15:20;9.80;98.80
26304;DHT22;70693;48.680;8.890;2023-12-07T04:17:46;9.80;98.40
26304;DHT22;70693;48.680;8.890;2023-12-07T04:20:12;9.80;98.40
26304;DHT22;70693;48.680;8.890;2023-12-07T04:22:41;9.80;98.50
26304;DHT22;70693;48.680;8.890;2023-12-07T04:25:07;9.80;98.40
26304;DHT22;70693;48.680;8.890;2023-12-07T04:27:36;9.80;98.40
26304;DHT22;70693;48.680;8.890;2023-12-07T04:30:02;9.80;98.40
26304;DHT22;70693;48.680;8.890;2023-12-07T04:32:29;9.80;98.40
26304;DHT22;70693;48.680;8.890;2023-12-07T04:34:55;9.80;98.40
26304;DHT22;70693;48.680;8.890;2023-12-07T04:37:20;9.80;98.40
26304;DHT22;70693;48.680;8.890;2023-12-07T04:39:46;9.80;98.50
26304;DHT22;70693;48.680;8.890;2023-12-07T04:42:12;9.80;98.50
26304;DHT22;70693;48.680;8.890;2023-12-07T04:44:37;9.80;98.50
26304;DHT22;70693;48.680;8.890;2023-12-07T04:47:03;9.80;98.40
26304;DHT22;70693;48.680;8.890;2023-12-07T04:49:29;9.80;98.40
26304;DHT22;70693;48.680;8.890;2023-12-07T04:51:54;9.80;98.40
26304;DHT22;70693;48.680;8.890;2023-12-07T04:54:20;9.80;98.40
26304;DHT22;70693;48.680;8.890;2023-12-07T04:56:46;9.80;98.70
26304;DHT22;70693;48.680;8.890;2023-12-07T04:59:12;9.80;98.40
26304;DHT22;70693;48.680;8.890;2023-12-07T05:01:38;9.70;98.40
26304;DHT22;70693;48.680;8.890;2023-12-07T05:04:06;9.80;98.40
26304;DHT22;70693;48.680;8.890;2023-12-07T05:06:32;9.70;98.40
26304;DHT22;70693;48.680;8.890;2023-12-07T05:08:58;9.80;98.40
26304;DHT22;70693;48.680;8.890;2023-12-07T05:11:23;9.70;98.40
26304;DHT22;70693;48.680;8.890;2023-12-07T05:13:49;9.70;98.40
26304;DHT22;70693;48.680;8.890;2023-12-07T05:16:15;9.70;98.30
26304;DHT22;70693;48.680;8.890;2023-12-07T05:18:40;9.70;98.40
26304;DHT22;70693;48.680;8.890;2023-12-07T05:21:07;9.70;98.30
26304;DHT22;70693;48.680;8.890;2023-12-07T05:23:33;9.70;98.30
26304;DHT22;70693;48.680;8.890;2023-12-07T05:25:59;9.70;98.30
26304;DHT22;70693;48.680;8.890;2023-12-07T05:28:25;9.70;98.30
26304;DHT22;70693;48.680;8.890;2023-12-07T05:30:51;9.70;98.30
26304;DHT22;70693;48.680;8.890;2023-12-07T05:33:18;9.70;98.30
26304;DHT22;70693;48.680;8.890;2023-12-07T05:35:45;9.70;98.30
26304;DHT22;70693;48.680;8.890;2023-12-07T05:38:10;9.70;98.60
26304;DHT22;70693;48.680;8.890;2023-12-07T05:40:36;9.70;98.20
26304;DHT22;70693;48.680;8.890;2023-12-07T05:43:02;9.70;98.30
26304;DHT22;70693;48.680;8.890;2023-12-07T05:45:29;9.70;98.20
26304;DHT22;70693;48.680;8.890;2023-12-07T05:47:54;9.70;98.20
26304;DHT22;70693;48.680;8.890;2023-12-07T05:50:20;9.70;98.20
26304;DHT22;70693;48.680;8.890;2023-12-07T05:52:46;9.70;98.20
26304;DHT22;70693;48.680;8.890;2023-12-07T05:55:11;9.70;98.20
26304;DHT22;70693;48.680;8.890;2023-12-07T05:57:38;9.70;98.20
26304;DHT22;70693;48.680;8.890;2023-12-07T06:00:04;9.70;98.20
26304;DHT22;70693;48.680;8.890;2023-12-07T06:02:34;9.70;98.50
26304;DHT22;70693;48.680;8.890;2023-12-07T06:05:00;9.70;98.20
26304;DHT22;70693;48.680;8.890;2023-12-07T06:07:26;9.70;98.20
26304;DHT22;70693;48.680;8.890;2023-12-07T06:09:51;9.70;98.20
26304;DHT22;70693;48.680;8.890;2023-12-07T06:12:17;9.70;98.20
26304;DHT22;70693;48.680;8.890;2023-12-07T06:14:43;9.70;98.20
26304;DHT22;70693;48.680;8.890;2023-12-07T06:17:08;9.70;98.10
26304;DHT22;70693;48.680;8.890;2023-12-07T06:19:34;9.70;98.10
26304;DHT22;70693;48.680;8.890;2023-12-07T06:21:59;9.70;98.10
26304;DHT22;70693;48.680;8.890;2023-12-07T06:24:25;9.60;98.10
26304;DHT22;70693;48.680;8.890;2023-12-07T06:26:51;9.60;98.10
26304;DHT22;70693;48.680;8.890;2023-12-07T06:29:17;9.70;98.10
26304;DHT22;70693;48.680;8.890;2023-12-07T06:31:44;9.60;98.10
26304;DHT22;70693;48.680;8.890;2023-12-07T06:34:10;9.60;98.10
26304;DHT22;70693;48.680;8.890;2023-12-07T06:36:35;9.60;98.10
26304;DHT22;70693;48.680;8.890;2023-12-07T06:39:02;9.60;98.10
26304;DHT22;70693;48.680;8.890;2023-12-07T06:41:28;9.60;98.10
26304;DHT22;70693;48.680;8.890;2023-12-07T06:43:54;9.60;98.00
26304;DHT22;70693;48.680;8.890;2023-12-07T06:46:20;9.60;98.00
26304;DHT22;70693;48.680;8.890;2023-12-07T06:48:45;9.60;98.00
26304;DHT22;70693;48.680;8.890;2023-12-07T06:51:11;9.60;98.00
26304;DHT22;70693;48.680;8.890;2023-12-07T06:53:40;9.60;98.00
26304;DHT22;70693;48.680;8.890;2023-12-07T06:56:07;9.60;98.00
26304;DHT22;70693;48.680;8.890;2023-12-07T06:58:32;9.60;98.00
26304;DHT22;70693;48.680;8.890;2023-12-07T07:00:58;9.60;98.00
26304;DHT22;70693;48.680;8.890;2023-12-07T07:03:24;9.60;98.00
26304;DHT22;70693;48.680;8.890;2023-12-07T07:05:50;9.60;98.00
26304;DHT22;70693;48.680;8.890;2023-12-07T07:08:15;9.60;98.00
26304;DHT22;70693;48.680;8.890;2023-12-07T07:10:41;9.60;98.30
26304;DHT22;70693;48.680;8.890;2023-12-07T07:13:07;9.60;98.00
26304;DHT22;70693;48.680;8.890;2023-12-07T07:15:33;9.60;98.00
26304;DHT22;70693;48.680;8.890;2023-12-07T07:17:59;9.60;98.00
26304;DHT22;70693;48.680;8.890;2023-12-07T07:20:25;9.60;98.00
26304;DHT22;70693;48.680;8.890;2023-12-07T07:22:50;9.60;98.00
26304;DHT22;70693;48.680;8.890;2023-12-07T07:25:16;9.60;98.00
26304;DHT22;70693;48.680;8.890;2023-12-07T07:27:47;9.60;98.00
26304;DHT22;70693;48.680;8.890;2023-12-07T07:30:13;9.60;98.00
26304;DHT22;70693;48.680;8.890;2023-12-07T07:32:39;9.70;98.00
26304;DHT22;70693;48.680;8.890;2023-12-07T07:35:05;9.70;97.90
26304;DHT22;70693;48.680;8.890;2023-12-07T07:37:31;9.70;97.90
26304;DHT22;70693;48.680;8.890;2023-12-07T07:39:57;9.80;97.90
26304;DHT22;70693;48.680;8.890;2023-12-07T07:42:22;9.80;97.90
26304;DHT22;70693;48.680;8.890;2023-12-07T07:44:48;9.80;97.80
26304;DHT22;70693;48.680;8.890;2023-12-07T07:47:13;9.90;97.80
26304;DHT22;70693;48.680;8.890;2023-12-07T07:49:39;10.00;97.70
26304;DHT22;70693;48.680;8.890;2023-12-07T07:52:05;10.00;97.60
26304;DHT22;70693;48.680;8.890;2023-12-07T07:54:31;10.10;97.60
26304;DHT22;70693;48.680;8.890;2023-12-07T07:56:56;10.20;97.60
26304;DHT22;70693;48.680;8.890;2023-12-07T07:59:22;10.20;97.50
26304;DHT22;70693;48.680;8.890;2023-12-07T08:01:48;10.30;97.40
26304;DHT22;70693;48.680;8.890;2023-12-07T08:04:14;10.40;97.40
26304;DHT22;70693;48.680;8.890;2023-12-07T08:06:41;10.50;97.30
26304;DHT22;70693;48.680;8.890;2023-12-07T08:09:08;10.50;97.60
26304;DHT22;70693;48.680;8.890;2023-12-07T08:11:34;10.60;97.20
26304;DHT22;70693;48.680;8.890;2023-12-07T08:14:00;10.80;97.20
26304;DHT22;70693;48.680;8.890;2023-12-07T08:16:25;10.80;97.10
26304;DHT22;70693;48.680;8.890;2023-12-07T08:18:52;10.90;97.00
26304;DHT22;70693;48.680;8.890;2023-12-07T08:21:20;11.00;96.90
26304;DHT22;70693;48.680;8.890;2023-12-07T08:23:45;11.10;96.80
26304;DHT22;70693;48.680;8.890;2023-12-07T08:26:11;11.20;96.70
26304;DHT22;70693;48.680;8.890;2023-12-07T08:28:42;11.40;96.60
26304;DHT22;70693;48.680;8.890;2023-12-07T08:31:09;11.50;96.50
26304;DHT22;70693;48.680;8.890;2023-12-07T08:33:34;11.60;96.40
26304;DHT22;70693;48.680;8.890;2023-12-07T08:36:04;11.70;96.30
26304;DHT22;70693;48.680;8.890;2023-12-07T08:38:29;11.80;96.10
26304;DHT22;70693;48.680;8.890;2023-12-07T08:40:55;11.90;96.00
26304;DHT22;70693;48.680;8.890;2023-12-07T08:43:21;12.00;95.90
26304;DHT22;70693;48.680;8.890;2023-12-07T08:45:51;12.10;95.80
26304;DHT22;70693;48.680;8.890;2023-12-07T08:48:18;12.20;95.60
26304;DHT22;70693;48.680;8.890;2023-12-07T08:50:44;12.30;95.50
26304;DHT22;70693;48.680;8.890;2023-12-07T08:53:09;12.40;95.40
26304;DHT22;70693;48.680;8.890;2023-12-07T08:55:35;12.60;95.30
26304;DHT22;70693;48.680;8.890;2023-12-07T08:58:01;12.60;95.20
26304;DHT22;70693;48.680;8.890;2023-12-07T09:00:32;12.70;95.10
26304;DHT22;70693;48.680;8.890;2023-12-07T09:02:58;12.80;95.30
26304;DHT22;70693;48.680;8.890;2023-12-07T09:05:25;12.90;94.90
26304;DHT22;70693;48.680;8.890;2023-12-07T09:07:51;13.00;94.80
26304;DHT22;70693;48.680;8.890;2023-12-07T09:10:18;13.10;94.70
26304;DHT22;70693;48.680;8.890;2023-12-07T09:12:44;13.20;94.60
26304;DHT22;70693;48.680;8.890;2023-12-07T09:15:09;13.20;94.50
26304;DHT22;70693;48.680;8.890;2023-12-07T09:17:36;13.30;94.40
26304;DHT22;70693;48.680;8.890;2023-12-07T09:20:04;13.40;94.40
26304;DHT22;70693;48.680;8.890;2023-12-07T09:22:30;13.50;94.30
26304;DHT22;70693;48.680;8.890;2023-12-07T09:24:56;13.60;94.20
26304;DHT22;70693;48.680;8.890;2023-12-07T09:27:22;13.70;94.10
26304;DHT22;70693;48.680;8.890;2023-12-07T09:29:48;13.80;94.00
26304;DHT22;70693;48.680;8.890;2023-12-07T09:32:14;13.90;93.90
26304;DHT22;70693;48.680;8.890;2023-12-07T09:34:40;14.00;93.80
26304;DHT22;70693;48.680;8.890;2023-12-07T09:37:09;14.10;93.70
26304;DHT22;70693;48.680;8.890;2023-12-07T09:39:35;14.20;93.60
26304;DHT22;70693;48.680;8.890;2023-12-07T09:42:01;14.30;93.60
26304;DHT22;70693;48.680;8.890;2023-12-07T09:44:28;14.30;93.50
26304;DHT22;70693;48.680;8.890;2023-12-07T09:46:54;14.50;93.40
26304;DHT22;70693;48.680;8.890;2023-12-07T09:49:20;14.50;93.30
26304;DHT22;70693;48.680;8.890;2023-12-07T09:51:48;14.60;93.20
26304;DHT22;70693;48.680;8.890;2023-12-07T09:54:15;14.70;93.10
26304;DHT22;70693;48.680;8.890;2023-12-07T09:56:40;14.80;93.00
26304;DHT22;70693;48.680;8.890;2023-12-07T09:59:06;14.80;92.90
26304;DHT22;70693;48.680;8.890;2023-12-07T10:01:32;14.90;92.80
26304;DHT22;70693;48.680;8.890;2023-12-07T10:04:20;15.00;92.80
26304;DHT22;70693;48.680;8.890;2023-12-07T10:06:46;15.10;92.70
26304;DHT22;70693;48.680;8.890;2023-12-07T10:09:13;15.20;92.60
26304;DHT22;70693;48.680;8.890;2023-12-07T10:11:39;15.30;92.50
26304;DHT22;70693;48.680;8.890;2023-12-07T10:14:06;15.40;92.50
26304;DHT22;70693;48.680;8.890;2023-12-07T10:16:33;15.40;92.40
26304;DHT22;70693;48.680;8.890;2023-12-07T10:19:21;15.50;92.30
26304;DHT22;70693;48.680;8.890;2023-12-07T10:21:53;15.60;92.20
26304;DHT22;70693;48.680;8.890;2023-12-07T10:24:24;15.70;92.10
26304;DHT22;70693;48.680;8.890;2023-12-07T10:26:52;15.70;92.00
26304;DHT22;70693;48.680;8.890;2023-12-07T10:29:18;15.80;92.00
26304;DHT22;70693;48.680;8.890;2023-12-07T10:31:45;15.90;91.90
26304;DHT22;70693;48.680;8.890;2023-12-07T10:34:12;15.90;91.80
26304;DHT22;70693;48.680;8.890;2023-12-07T10:36:38;16.00;91.70
26304;DHT22;70693;48.680;8.890;2023-12-07T10:39:04;16.10;91.70
26304;DHT22;70693;48.680;8.890;2023-12-07T10:41:34;16.20;91.60
26304;DHT22;70693;48.680;8.890;2023-12-07T10:44:01;16.20;91.60
26304;DHT22;70693;48.680;8.890;2023-12-07T10:46:29;16.20;91.60
26304;DHT22;70693;48.680;8.890;2023-12-07T10:49:04;16.20;91.50
26304;DHT22;70693;48.680;8.890;2023-12-07T10:51:51;16.30;91.50
26304;DHT22;70693;48.680;8.890;2023-12-07T10:54:22;16.30;91.40
26304;DHT22;70693;48.680;8.890;2023-12-07T10:56:49;16.40;91.40
26304;DHT22;70693;48.680;8.890;2023-12-07T10:59:16;16.40;91.30
26304;DHT22;70693;48.680;8.890;2023-12-07T11:01:43;16.50;91.20
26304;DHT22;70693;48.680;8.890;2023-12-07T11:04:13;16.50;91.50
26304;DHT22;70693;48.680;8.890;2023-12-07T11:06:43;16.60;91.10
26304;DHT22;70693;48.680;8.890;2023-12-07T11:09:16;16.60;91.10
26304;DHT22;70693;48.680;8.890;2023-12-07T11:11:47;16.60;91.00
26304;DHT22;70693;48.680;8.890;2023-12-07T11:14:15;16.70;91.00
26304;DHT22;70693;48.680;8.890;2023-12-07T11:16:45;16.70;90.90
26304;DHT22;70693;48.680;8.890;2023-12-07T11:21:59;16.80;90.80
26304;DHT22;70693;48.680;8.890;2023-12-07T11:24:25;16.80;90.70
26304;DHT22;70693;48.680;8.890;2023-12-07T11:26:57;16.90;90.70
26304;DHT22;70693;48.680;8.890;2023-12-07T11:29:29;16.90;90.60
26304;DHT22;70693;48.680;8.890;2023-12-07T11:32:04;16.90;90.50
26304;DHT22;70693;48.680;8.890;2023-12-07T11:34:42;17.00;90.50
26304;DHT22;70693;48.680;8.890;2023-12-07T11:37:09;17.00;90.40
26304;DHT22;70693;48.680;8.890;2023-12-07T11:39:37;17.10;90.30
26304;DHT22;70693;48.680;8.890;2023-12-07T11:42:10;17.10;90.30
26304;DHT22;70693;48.680;8.890;2023-12-07T11:44:40;17.10;90.20
26304;DHT22;70693;48.680;8.890;2023-12-07T11:47:06;17.10;90.20
26304;DHT22;70693;48.680;8.890;2023-12-07T11:49:32;17.10;90.10
26304;DHT22;70693;48.680;8.890;2023-12-07T11:51:59;17.10;90.10
26304;DHT22;70693;48.680;8.890;2023-12-07T11:54:26;17.10;90.10
26304;DHT22;70693;48.680;8.890;2023-12-07T11:56:55;17.10;90.00
26304;DHT22;70693;48.680;8.890;2023-12-07T11:59:24;17.10;90.00
26304;DHT22;70693;48.680;8.890;2023-12-07T12:01:53;17.10;89.90
26304;DHT22;70693;48.680;8.890;2023-12-07T12:04:18;17.10;89.80
26304;DHT22;70693;48.680;8.890;2023-12-07T12:06:44;17.10;89.60
26304;DHT22;70693;48.680;8.890;2023-12-07T12:09:14;17.20;89.40
26304;DHT22;70693;48.680;8.890;2023-12-07T12:11:49;17.20;89.20
26304;DHT22;70693;48.680;8.890;2023-12-07T12:14:16;17.20;89.10
26304;DHT22;70693;48.680;8.890;2023-12-07T12:16:51;17.20;89.10
26304;DHT22;70693;48.680;8.890;2023-12-07T12:19:17;17.20;89.00
26304;DHT22;70693;48.680;8.890;2023-12-07T12:21:43;17.20;88.90
26304;DHT22;70693;48.680;8.890;2023-12-07T12:24:10;17.20;88.80
26304;DHT22;70693;48.680;8.890;2023-12-07T12:26:41;17.30;88.70
26304;DHT22;70693;48.680;8.890;2023-12-07T12:29:07;17.30;88.70
26304;DHT22;70693;48.680;8.890;2023-12-07T12:31:37;17.30;88.60
26304;DHT22;70693;48.680;8.890;2023-12-07T12:34:05;17.30;88.60
26304;DHT22;70693;48.680;8.890;2023-12-07T12:36:32;17.30;88.50
26304;DHT22;70693;48.680;8.890;2023-12-07T12:38:58;17.30;88.50
26304;DHT22;70693;48.680;8.890;2023-12-07T12:41:24;17.20;88.30
26304;DHT22;70693;48.680;8.890;2023-12-07T12:43:51;17.20;88.30
26304;DHT22;70693;48.680;8.890;2023-12-07T12:46:17;17.20;88.20
26304;DHT22;70693;48.680;8.890;2023-12-07T12:48:55;17.20;88.10
26304;DHT22;70693;48.680;8.890;2023-12-07T12:51:24;17.20;88.10
26304;DHT22;70693;48.680;8.890;2023-12-07T12:53:51;17.20;88.10
26304;DHT22;70693;48.680;8.890;2023-12-07T12:56:18;17.20;88.70
26304;DHT22;70693;48.680;8.890;2023-12-07T12:58:45;17.20;87.90
26304;DHT22;70693;48.680;8.890;2023-12-07T13:01:10;17.20;87.90
26304;DHT22;70693;48.680;8.890;2023-12-07T13:03:36;17.20;87.80
26304;DHT22;70693;48.680;8.890;2023-12-07T13:06:02;17.20;87.60
26304;DHT22;70693;48.680;8.890;2023-12-07T13:08:28;17.20;87.60
26304;DHT22;70693;48.680;8.890;2023-12-07T13:10:54;17.10;87.50
26304;DHT22;70693;48.680;8.890;2023-12-07T13:13:19;17.20;87.40
26304;DHT22;70693;48.680;8.890;2023-12-07T13:15:46;17.10;87.30
26304;DHT22;70693;48.680;8.890;2023-12-07T13:18:11;17.20;87.30
26304;DHT22;70693;48.680;8.890;2023-12-07T13:20:38;17.10;87.30
26304;DHT22;70693;48.680;8.890;2023-12-07T13:23:04;17.10;87.20
26304;DHT22;70693;48.680;8.890;2023-12-07T13:25:30;17.10;87.10
26304;DHT22;70693;48.680;8.890;2023-12-07T13:27:56;17.10;87.10
26304;DHT22;70693;48.680;8.890;2023-12-07T13:30:21;17.10;87.10
26304;DHT22;70693;48.680;8.890;2023-12-07T13:32:48;17.10;87.10
26304;DHT22;70693;48.680;8.890;2023-12-07T13:35:15;17.00;87.10
26304;DHT22;70693;48.680;8.890;2023-12-07T13:37:40;17.00;87.10
26304;DHT22;70693;48.680;8.890;2023-12-07T13:40:07;17.00;87.10
26304;DHT22;70693;48.680;8.890;2023-12-07T13:42:36;17.00;87.10
26304;DHT22;70693;48.680;8.890;2023-12-07T13:45:02;17.00;87.20
26304;DHT22;70693;48.680;8.890;2023-12-07T13:47:28;16.90;87.20
26304;DHT22;70693;48.680;8.890;2023-12-07T13:49:58;16.90;87.20
26304;DHT22;70693;48.680;8.890;2023-12-07T13:52:24;16.90;87.30
26304;DHT22;70693;48.680;8.890;2023-12-07T13:54:50;16.90;88.00
26304;DHT22;70693;48.680;8.890;2023-12-07T13:57:16;16.90;87.30
26304;DHT22;70693;48.680;8.890;2023-12-07T13:59:42;16.90;87.50
26304;DHT22;70693;48.680;8.890;2023-12-07T14:02:07;16.80;87.40
26304;DHT22;70693;48.680;8.890;2023-12-07T14:04:33;16.80;87.40
26304;DHT22;70693;48.680;8.890;2023-12-07T14:07:15;16.80;87.50
26304;DHT22;70693;48.680;8.890;2023-12-07T14:09:43;16.80;87.50
26304;DHT22;70693;48.680;8.890;2023-12-07T14:12:09;16.70;87.40
26304;DHT22;70693;48.680;8.890;2023-12-07T14:14:39;16.70;87.50
26304;DHT22;70693;48.680;8.890;2023-12-07T14:17:04;16.70;87.60
26304;DHT22;70693;48.680;8.890;2023-12-07T14:19:31;16.60;87.60
26304;DHT22;70693;48.680;8.890;2023-12-07T14:21:56;16.60;87.70
26304;DHT22;70693;48.680;8.890;2023-12-07T14:24:23;16.60;88.10
26304;DHT22;70693;48.680;8.890;2023-12-07T14:26:49;16.60;87.80
26304;DHT22;70693;48.680;8.890;2023-12-07T14:29:15;16.50;87.80
26304;DHT22;70693;48.680;8.890;2023-12-07T14:31:44;16.50;87.90
26304;DHT22;70693;48.680;8.890;2023-12-07T14:34:10;16.50;88.00
26304;DHT22;70693;48.680;8.890;2023-12-07T14:36:36;16.50;88.10
26304;DHT22;70693;48.680;8.890;2023-12-07T14:39:04;16.40;88.10
26304;DHT22;70693;48.680;8.890;2023-12-07T14:41:32;16.40;88.20
26304;DHT22;70693;48.680;8.890;2023-12-07T14:43:58;16.30;88.30
26304;DHT22;70693;48.680;8.890;2023-12-07T14:46:23;16.30;88.40
26304;DHT22;70693;48.680;8.890;2023-12-07T14:48:50;16.30;88.50
26304;DHT22;70693;48.680;8.890;2023-12-07T14:51:19;16.30;88.50
26304;DHT22;70693;48.680;8.890;2023-12-07T14:53:48;16.20;88.50
26304;DHT22;70693;48.680;8.890;2023-12-07T14:56:13;16.10;88.50
26304;DHT22;70693;48.680;8.890;2023-12-07T14:58:39;16.10;88.60
26304;DHT22;70693;48.680;8.890;2023-12-07T15:01:08;16.10;88.60
26304;DHT22;70693;48.680;8.890;2023-12-07T15:03:34;16.10;88.70
26304;DHT22;70693;48.680;8.890;2023-12-07T15:06:00;16.00;88.70
26304;DHT22;70693;48.680;8.890;2023-12-07T15:08:26;16.00;88.80
26304;DHT22;70693;48.680;8.890;2023-12-07T15:10:52;16.00;88.90
26304;DHT22;70693;48.680;8.890;2023-12-07T15:13:20;15.90;88.90
26304;DHT22;70693;48.680;8.890;2023-12-07T15:15:45;15.90;89.00
26304;DHT22;70693;48.680;8.890;2023-12-07T15:18:11;15.80;89.10
26304;DHT22;70693;48.680;8.890;2023-12-07T15:20:36;15.80;89.10
26304;DHT22;70693;48.680;8.890;2023-12-07T15:23:03;15.80;89.20
26304;DHT22;70693;48.680;8.890;2023-12-07T15:25:28;15.70;89.20
26304;DHT22;70693;48.680;8.890;2023-12-07T15:27:57;15.80;89.40
26304;DHT22;70693;48.680;8.890;2023-12-07T15:30:23;15.70;89.40
26304;DHT22;70693;48.680;8.890;2023-12-07T15:32:51;15.60;89.40
26304;DHT22;70693;48.680;8.890;2023-12-07T15:35:17;15.60;89.60
26304;DHT22;70693;48.680;8.890;2023-12-07T15:37:43;15.60;89.60